createdAt,value
2018-02-05T00:00:53.015Z,25.33
2018-02-05T00:03:20.563Z,25.43
2018-02-05T00:05:48.189Z,27.83
2018-02-05T00:08:15.790Z,36.33
2018-02-05T00:10:43.525Z,49.90
2018-02-05T00:13:11.365Z,64.53
2018-02-05T00:15:38.918Z,50.63
2018-02-05T00:18:06.548Z,30.93
2018-02-05T00:20:34.126Z,30.10
2018-02-05T00:23:01.742Z,29.57
2018-02-05T00:25:29.293Z,33.50
2018-02-05T00:27:56.855Z,29.70
2018-02-05T00:30:24.413Z,40.87
2018-02-05T00:32:52.092Z,35.60
2018-02-05T00:35:19.677Z,30.57
2018-02-05T00:37:47.275Z,29.90
2018-02-05T00:40:14.882Z,29.53
2018-02-05T00:42:42.450Z,29.03
2018-02-05T00:45:10.005Z,46.37
2018-02-05T00:47:37.570Z,38.10
2018-02-05T00:50:05.337Z,31.60
2018-02-05T00:52:32.927Z,29.67
2018-02-05T00:55:00.507Z,50.57
2018-02-05T00:57:28.087Z,36.30
2018-02-05T00:59:55.653Z,34.73
2018-02-05T01:02:23.213Z,27.33
2018-02-05T01:04:50.940Z,51.53
2018-02-05T01:07:18.498Z,41.77
2018-02-05T01:09:46.276Z,52.60
2018-02-05T01:12:14.080Z,32.27
2018-02-05T01:14:41.634Z,27.93
2018-02-05T01:17:09.432Z,58.20
2018-02-05T01:19:37.250Z,78.37
2018-02-05T01:22:04.826Z,54.27
2018-02-05T01:24:32.560Z,63.97
2018-02-05T01:27:00.175Z,74.03
2018-02-05T01:29:27.741Z,34.77
2018-02-05T01:31:55.310Z,30.47
2018-02-05T01:34:22.970Z,128.53
2018-02-05T01:36:50.525Z,44.43
2018-02-05T01:39:18.121Z,27.37
2018-02-05T01:41:45.899Z,27.57
2018-02-05T01:44:13.516Z,24.90
2018-02-05T01:46:41.306Z,35.87
2018-02-05T01:49:09.066Z,43.90
2018-02-05T01:51:36.884Z,36.13
2018-02-05T01:54:04.702Z,27.60
2018-02-05T01:56:32.362Z,28.03
2018-02-05T01:58:59.921Z,24.83
2018-02-05T02:01:27.715Z,23.93
2018-02-05T02:03:55.292Z,23.23
2018-02-05T02:06:22.862Z,26.30
2018-02-05T02:08:50.444Z,26.57
2018-02-05T02:11:18.006Z,28.77
2018-02-05T02:13:45.574Z,30.37
2018-02-05T02:16:13.130Z,37.07
2018-02-05T02:18:40.941Z,28.57
2018-02-05T02:21:08.501Z,95.40
2018-02-05T02:23:36.318Z,85.57
2018-02-05T02:26:04.036Z,84.57
2018-02-05T02:28:31.754Z,75.87
2018-02-05T02:30:59.373Z,30.57
2018-02-05T02:33:26.933Z,36.53
2018-02-05T02:35:54.500Z,38.77
2018-02-05T02:38:22.072Z,34.10
2018-02-05T02:40:49.630Z,33.50
2018-02-05T02:43:17.197Z,34.03
2018-02-05T02:45:44.885Z,43.90
2018-02-05T02:48:12.577Z,39.80
2018-02-05T02:50:40.138Z,33.07
2018-02-05T02:53:07.699Z,26.13
2018-02-05T02:55:35.341Z,25.50
2018-02-05T02:58:03.001Z,25.83
2018-02-05T03:00:30.566Z,24.90
2018-02-05T03:02:58.124Z,24.70
2018-02-05T03:05:25.924Z,24.20
2018-02-05T03:07:53.740Z,24.47
2018-02-05T03:10:21.557Z,40.50
2018-02-05T03:12:49.133Z,56.33
2018-02-05T03:15:16.719Z,35.73
2018-02-05T03:17:44.294Z,26.07
2018-02-05T03:20:11.853Z,26.33
2018-02-05T03:22:39.465Z,25.20
2018-02-05T03:25:07.266Z,24.00
2018-02-05T03:27:34.830Z,61.63
2018-02-05T03:30:02.703Z,51.17
2018-02-05T03:32:30.263Z,24.23
2018-02-05T03:34:57.833Z,26.77
2018-02-05T03:37:25.393Z,29.20
2018-02-05T03:39:53.017Z,41.57
2018-02-05T03:42:20.585Z,39.03
2018-02-05T03:44:48.150Z,26.47
2018-02-05T03:47:15.832Z,25.03
2018-02-05T03:49:43.387Z,26.90
2018-02-05T03:52:11.164Z,27.13
2018-02-05T03:54:38.722Z,26.77
2018-02-05T03:57:06.499Z,25.30
2018-02-05T03:59:34.083Z,25.27
2018-02-05T04:02:01.642Z,24.57
2018-02-05T04:04:29.210Z,25.33
2018-02-05T04:07:02.206Z,23.90
2018-02-05T04:09:30.009Z,25.07
2018-02-05T04:11:57.826Z,24.63
2018-02-05T04:14:25.503Z,34.60
2018-02-05T04:16:53.065Z,29.20
2018-02-05T04:19:20.617Z,27.07
2018-02-05T04:21:48.190Z,25.73
2018-02-05T04:24:15.923Z,28.37
2018-02-05T04:26:43.489Z,27.70
2018-02-05T04:29:11.066Z,27.47
2018-02-05T04:31:38.652Z,28.80
2018-02-05T04:34:06.355Z,32.17
2018-02-05T04:36:34.098Z,27.77
2018-02-05T04:39:01.702Z,27.20
2018-02-05T04:41:29.445Z,38.43
2018-02-05T04:43:57.261Z,32.97
2018-02-05T04:46:24.978Z,32.50
2018-02-05T04:48:52.796Z,36.10
2018-02-05T04:51:20.366Z,39.93
2018-02-05T04:53:48.134Z,33.90
2018-02-05T04:56:15.698Z,32.87
2018-02-05T04:58:43.254Z,34.87
2018-02-05T05:01:10.796Z,36.00
2018-02-05T05:03:38.490Z,40.23
2018-02-05T05:06:06.322Z,49.27
2018-02-05T05:08:33.889Z,49.83
2018-02-05T05:11:01.454Z,42.80
2018-02-05T05:13:29.022Z,37.10
2018-02-05T05:15:56.581Z,35.47
2018-02-05T05:18:24.412Z,38.20
2018-02-05T05:20:52.231Z,36.27
2018-02-05T05:23:19.858Z,34.20
2018-02-05T05:25:47.433Z,34.00
2018-02-05T05:28:15.162Z,41.27
2018-02-05T05:30:42.736Z,37.53
2018-02-05T05:33:10.333Z,32.13
2018-02-05T05:35:38.050Z,31.53
2018-02-05T05:38:05.611Z,34.23
2018-02-05T05:40:33.392Z,33.83
2018-02-05T05:43:00.945Z,35.30
2018-02-05T05:45:28.545Z,34.47
2018-02-05T05:47:56.117Z,33.77
2018-02-05T05:50:23.848Z,34.40
2018-02-05T05:52:51.410Z,37.47
2018-02-05T05:55:18.973Z,36.17
2018-02-05T05:57:46.800Z,40.33
2018-02-05T06:00:14.518Z,36.40
2018-02-05T06:02:42.077Z,39.87
2018-02-05T06:05:09.666Z,40.57
2018-02-05T06:07:37.228Z,37.47
2018-02-05T06:10:04.829Z,42.93
2018-02-05T06:12:32.393Z,38.97
2018-02-05T06:15:00.028Z,35.97
2018-02-05T06:17:27.586Z,35.43
2018-02-05T06:19:55.166Z,40.10
2018-02-05T06:22:22.734Z,37.83
2018-02-05T06:24:50.287Z,38.90
2018-02-05T06:27:17.845Z,39.93
2018-02-05T06:29:45.631Z,43.20
2018-02-05T06:32:13.190Z,49.00
2018-02-05T06:34:40.765Z,68.13
2018-02-05T06:37:08.476Z,52.70
2018-02-05T06:39:36.068Z,51.57
2018-02-05T06:42:03.821Z,44.43
2018-02-05T06:44:31.437Z,38.73
2018-02-05T06:46:59.262Z,38.20
2018-02-05T06:49:27.075Z,33.30
2018-02-05T06:55:13.381Z,42.83
2018-02-05T06:57:40.958Z,35.80
2018-02-05T07:00:08.582Z,37.17
2018-02-05T07:02:36.235Z,34.23
2018-02-05T07:05:03.849Z,33.20
2018-02-05T07:07:31.585Z,33.87
2018-02-05T07:09:59.153Z,34.07
2018-02-05T07:12:26.920Z,34.17
2018-02-05T07:14:54.518Z,32.37
2018-02-05T07:17:22.263Z,30.33
2018-02-05T07:19:50.070Z,33.73
2018-02-05T07:22:17.633Z,31.20
2018-02-05T07:24:45.201Z,30.37
2018-02-05T07:27:12.782Z,28.50
2018-02-05T07:29:40.351Z,27.77
2018-02-05T07:32:08.001Z,28.07
2018-02-05T07:34:35.848Z,31.13
2018-02-05T07:37:03.460Z,29.03
2018-02-05T07:39:31.215Z,26.10
2018-02-05T07:42:00.413Z,24.57
2018-02-05T07:44:28.747Z,20.07
2018-02-05T07:46:56.496Z,20.50
2018-02-05T07:49:24.164Z,18.67
2018-02-05T07:51:53.506Z,17.53
2018-02-05T07:54:21.730Z,18.20
2018-02-05T07:56:49.309Z,17.80
2018-02-05T07:59:17.075Z,17.67
2018-02-05T08:01:44.764Z,17.23
2018-02-05T08:04:12.503Z,16.43
2018-02-05T08:06:40.532Z,16.10
2018-02-05T08:09:08.104Z,17.17
2018-02-05T08:11:36.389Z,15.93
2018-02-05T08:14:04.045Z,14.10
2018-02-05T08:16:32.866Z,15.37
2018-02-05T08:19:00.438Z,14.87
2018-02-05T08:21:28.246Z,15.27
2018-02-05T08:23:55.850Z,14.70
2018-02-05T08:26:23.419Z,14.50
2018-02-05T08:28:50.988Z,13.97
2018-02-05T08:31:18.605Z,14.00
2018-02-05T08:33:46.189Z,14.77
2018-02-05T08:36:13.759Z,13.73
2018-02-05T08:38:41.349Z,14.80
2018-02-05T08:41:09.146Z,13.13
2018-02-05T08:43:36.707Z,12.70
2018-02-05T08:46:04.270Z,14.03
2018-02-05T08:48:32.343Z,19.07
2018-02-05T08:51:00.061Z,12.67
2018-02-05T08:53:27.633Z,13.47
2018-02-05T08:55:55.194Z,13.83
2018-02-05T08:58:22.809Z,14.40
2018-02-05T09:00:50.374Z,13.10
2018-02-05T09:03:18.110Z,13.53
2018-02-05T09:05:45.685Z,12.87
2018-02-05T09:08:13.266Z,12.80
2018-02-05T09:10:40.832Z,12.27
2018-02-05T09:13:08.621Z,12.43
2018-02-05T09:15:36.440Z,13.23
2018-02-05T09:18:04.038Z,12.60
2018-02-05T09:20:31.630Z,12.60
2018-02-05T09:22:59.202Z,11.97
2018-02-05T09:25:27.012Z,12.67
2018-02-05T09:27:54.597Z,12.50
2018-02-05T09:30:22.301Z,13.30
2018-02-05T09:32:50.172Z,11.17
2018-02-05T09:35:17.739Z,11.47
2018-02-05T09:37:45.395Z,10.80
2018-02-05T09:40:12.993Z,13.03
2018-02-05T09:42:40.558Z,12.53
2018-02-05T09:45:08.356Z,14.13
2018-02-05T09:47:35.917Z,11.00
2018-02-05T09:50:03.793Z,10.77
2018-02-05T09:52:31.350Z,12.23
2018-02-05T09:54:58.914Z,12.00
2018-02-05T09:57:26.623Z,9.73
2018-02-05T09:59:54.197Z,10.80
2018-02-05T10:02:21.867Z,10.20
2018-02-05T10:04:49.692Z,10.30
2018-02-05T10:07:17.298Z,10.60
2018-02-05T10:09:45.037Z,9.70
2018-02-05T10:12:12.593Z,10.30
2018-02-05T10:14:40.169Z,10.27
2018-02-05T10:17:07.733Z,10.80
2018-02-05T10:19:35.301Z,11.87
2018-02-05T10:22:03.038Z,11.63
2018-02-05T10:24:30.735Z,13.20
2018-02-05T10:26:58.310Z,11.30
2018-02-05T10:29:25.892Z,12.07
2018-02-05T10:31:53.487Z,16.77
2018-02-05T10:34:21.115Z,24.40
2018-02-05T10:36:48.775Z,21.07
2018-02-05T10:39:16.350Z,15.77
2018-02-05T10:41:44.169Z,13.37
2018-02-05T10:44:11.989Z,11.97
2018-02-05T10:46:39.563Z,12.57
2018-02-05T10:49:07.315Z,11.40
2018-02-05T10:51:35.043Z,10.80
2018-02-05T10:54:02.605Z,18.90
2018-02-05T10:56:30.190Z,12.03
2018-02-05T10:58:57.910Z,14.17
2018-02-05T11:01:25.598Z,12.83
2018-02-05T11:03:53.164Z,25.90
2018-02-05T11:06:20.770Z,13.57
2018-02-05T11:08:48.343Z,13.93
2018-02-05T11:11:15.965Z,12.00
2018-02-05T11:13:43.588Z,12.33
2018-02-05T11:16:11.321Z,12.00
2018-02-05T11:18:38.915Z,11.67
2018-02-05T11:21:06.657Z,11.87
2018-02-05T11:23:34.672Z,12.67
2018-02-05T11:26:02.495Z,21.37
2018-02-05T11:28:30.104Z,16.20
2018-02-05T11:30:57.814Z,24.53
2018-02-05T11:33:25.373Z,11.63
2018-02-05T11:35:52.955Z,10.53
2018-02-05T11:38:20.571Z,13.83
2018-02-05T11:40:48.352Z,20.27
2018-02-05T11:43:15.916Z,8.87
2018-02-05T11:45:43.485Z,9.27
2018-02-05T11:48:11.064Z,9.60
2018-02-05T11:50:38.874Z,10.77
2018-02-05T11:53:06.445Z,9.97
2018-02-05T11:55:33.994Z,10.20
2018-02-05T11:58:01.609Z,27.87
2018-02-05T12:00:29.161Z,8.97
2018-02-05T12:02:56.726Z,13.57
2018-02-05T12:05:24.372Z,12.93
2018-02-05T12:07:54.198Z,8.60
2018-02-05T12:10:22.427Z,10.20
2018-02-05T12:12:50.130Z,12.93
2018-02-05T12:15:17.964Z,11.10
2018-02-05T12:17:45.503Z,8.97
2018-02-05T12:20:13.301Z,12.93
2018-02-05T12:22:40.869Z,9.10
2018-02-05T12:25:08.635Z,11.00
2018-02-05T12:27:36.219Z,10.63
2018-02-05T12:30:03.911Z,9.70
2018-02-05T12:32:31.561Z,8.40
2018-02-05T12:34:59.113Z,9.97
2018-02-05T12:37:26.825Z,8.17
2018-02-05T12:39:54.394Z,7.60
2018-02-05T12:42:21.950Z,8.43
2018-02-05T12:44:49.779Z,8.47
2018-02-05T12:47:17.354Z,9.47
2018-02-05T12:49:44.965Z,8.20
2018-02-05T12:52:12.694Z,13.60
2018-02-05T12:54:40.381Z,9.33
2018-02-05T12:57:08.674Z,19.13
2018-02-05T12:59:37.114Z,9.73
2018-02-05T13:02:06.721Z,8.30
2018-02-05T13:04:39.870Z,10.27
2018-02-05T13:07:07.674Z,8.03
2018-02-05T13:09:35.392Z,9.67
2018-02-05T13:12:02.999Z,9.53
2018-02-05T13:14:30.617Z,8.60
2018-02-05T13:16:58.185Z,10.10
2018-02-05T13:19:25.764Z,10.07
2018-02-05T13:21:53.325Z,8.30
2018-02-05T13:24:21.098Z,7.87
2018-02-05T13:26:48.657Z,8.50
2018-02-05T13:29:16.209Z,8.13
2018-02-05T13:31:43.838Z,7.50
2018-02-05T13:34:11.400Z,8.40
2018-02-05T13:36:38.970Z,8.63
2018-02-05T13:39:06.519Z,8.00
2018-02-05T13:41:34.125Z,11.43
2018-02-05T13:44:01.733Z,11.87
2018-02-05T13:46:29.458Z,10.13
2018-02-05T13:48:57.300Z,8.43
2018-02-05T13:51:24.874Z,8.23
2018-02-05T13:53:52.437Z,7.80
2018-02-05T13:56:20.018Z,8.50
2018-02-05T13:58:47.630Z,8.70
2018-02-05T14:01:15.196Z,8.57
2018-02-05T14:03:42.984Z,7.30
2018-02-05T14:06:10.556Z,8.40
2018-02-05T14:08:38.122Z,7.67
2018-02-05T14:11:05.827Z,8.07
2018-02-05T14:13:33.393Z,8.07
2018-02-05T14:16:01.015Z,7.47
2018-02-05T14:18:28.584Z,8.60
2018-02-05T14:20:56.145Z,12.47
2018-02-05T14:23:23.885Z,10.90
2018-02-05T14:25:51.646Z,12.07
2018-02-05T14:28:19.216Z,9.63
2018-02-05T14:30:46.780Z,13.80
2018-02-05T14:33:14.417Z,14.80
2018-02-05T14:35:42.108Z,13.60
2018-02-05T14:38:09.682Z,15.40
2018-02-05T14:40:37.453Z,19.17
2018-02-05T14:43:05.013Z,10.70
2018-02-05T14:45:32.586Z,9.73
2018-02-05T14:48:00.132Z,46.07
2018-02-05T14:50:27.738Z,32.00
2018-02-05T14:52:55.317Z,47.80
2018-02-05T14:55:23.060Z,24.93
2018-02-05T14:57:50.634Z,26.50
2018-02-05T15:00:18.396Z,15.00
2018-02-05T15:02:46.134Z,13.63
2018-02-05T15:05:13.722Z,11.70
2018-02-05T15:07:41.345Z,14.23
2018-02-05T15:10:08.969Z,58.53
2018-02-05T15:12:36.786Z,59.27
2018-02-05T15:15:04.377Z,44.97
2018-02-05T15:17:31.922Z,48.67
2018-02-05T15:19:59.740Z,22.33
2018-02-05T15:22:27.330Z,27.60
2018-02-05T15:24:55.175Z,48.43
2018-02-05T15:27:22.865Z,67.50
2018-02-05T15:29:50.440Z,65.90
2018-02-05T15:32:18.115Z,44.53
2018-02-05T15:34:45.740Z,48.97
2018-02-05T15:37:13.568Z,35.17
2018-02-05T15:39:41.130Z,32.67
2018-02-05T15:42:08.794Z,18.67
2018-02-05T15:44:36.515Z,18.47
2018-02-05T15:47:04.139Z,18.07
2018-02-05T15:49:32.083Z,20.20
2018-02-05T15:51:59.876Z,22.50
2018-02-05T15:54:27.641Z,20.83
2018-02-05T15:56:55.239Z,22.70
2018-02-05T15:59:22.919Z,24.13
2018-02-05T16:01:50.478Z,34.30
2018-02-05T16:04:18.038Z,62.17
2018-02-05T16:06:45.602Z,51.07
2018-02-05T16:09:13.147Z,34.57
2018-02-05T16:11:40.926Z,41.30
2018-02-05T16:14:08.485Z,64.00
2018-02-05T16:16:36.256Z,63.60
2018-02-05T16:19:04.161Z,102.57
2018-02-05T16:21:31.683Z,86.33
2018-02-05T16:23:59.396Z,101.47
2018-02-05T16:26:27.013Z,76.53
2018-02-05T16:28:54.792Z,67.10
2018-02-05T16:31:22.385Z,73.93
2018-02-05T16:33:50.188Z,76.33
2018-02-05T16:36:17.750Z,119.90
2018-02-05T16:38:45.519Z,66.00
2018-02-05T16:41:13.097Z,50.87
2018-02-05T16:43:40.852Z,64.30
2018-02-05T16:46:08.498Z,111.33
2018-02-05T16:48:36.063Z,76.77
2018-02-05T16:51:03.694Z,71.67
2018-02-05T16:53:31.409Z,95.80
2018-02-05T16:55:58.974Z,91.70
2018-02-05T16:58:26.613Z,66.43
2018-02-05T17:00:54.483Z,64.03
2018-02-05T17:03:22.301Z,51.93
2018-02-05T17:05:50.115Z,55.93
2018-02-05T17:08:17.669Z,55.60
2018-02-05T17:10:45.297Z,65.43
2018-02-05T17:13:13.073Z,63.80
2018-02-05T17:15:40.682Z,60.10
2018-02-05T17:18:08.705Z,72.33
2018-02-05T17:20:36.528Z,156.33
2018-02-05T17:23:04.152Z,161.63
2018-02-05T17:25:31.965Z,73.77
2018-02-05T17:27:59.517Z,45.43
2018-02-05T17:30:27.098Z,75.93
2018-02-05T17:32:54.690Z,124.00
2018-02-05T17:35:22.262Z,84.33
2018-02-05T17:37:50.054Z,77.07
2018-02-05T17:40:17.873Z,50.23
2018-02-05T17:42:45.590Z,44.50
2018-02-05T17:45:13.199Z,58.33
2018-02-05T17:47:40.777Z,86.83
2018-02-05T17:50:08.333Z,90.57
2018-02-05T17:52:36.085Z,88.20
2018-02-05T17:55:03.881Z,92.60
2018-02-05T17:57:31.650Z,68.33
2018-02-05T17:59:59.353Z,51.97
2018-02-05T18:02:27.035Z,42.57
2018-02-05T18:04:54.605Z,58.07
2018-02-05T18:07:22.177Z,104.07
2018-02-05T18:09:49.761Z,88.90
2018-02-05T18:12:17.332Z,75.93
2018-02-05T18:14:44.993Z,82.67
2018-02-05T18:17:12.549Z,64.70
2018-02-05T18:19:40.115Z,68.90
2018-02-05T18:22:07.690Z,86.50
2018-02-05T18:24:35.496Z,82.43
2018-02-05T18:27:03.105Z,121.10
2018-02-05T18:29:30.723Z,72.27
2018-02-05T18:31:58.349Z,132.80
2018-02-05T18:34:26.189Z,111.80
2018-02-05T18:36:53.765Z,118.63
2018-02-05T18:39:21.504Z,109.40
2018-02-05T18:41:49.301Z,76.23
2018-02-05T18:44:16.886Z,122.10
2018-02-05T18:46:44.650Z,117.00
2018-02-05T18:49:12.258Z,180.30
2018-02-05T18:51:39.817Z,85.67
2018-02-05T18:54:07.387Z,85.10
2018-02-05T18:56:44.677Z,87.80
2018-02-05T18:59:12.482Z,80.30
2018-02-05T19:01:40.704Z,56.27
2018-02-05T19:04:08.523Z,64.53
2018-02-05T19:06:36.109Z,59.70
2018-02-05T19:09:03.782Z,66.53
2018-02-05T19:11:31.418Z,55.30
2018-02-05T19:13:58.977Z,71.10
2018-02-05T19:16:26.545Z,95.53
2018-02-05T19:18:54.129Z,122.27
2018-02-05T19:21:21.697Z,102.37
2018-02-05T19:23:49.265Z,104.67
2018-02-05T19:26:16.835Z,90.40
2018-02-05T19:28:44.494Z,75.83
2018-02-05T19:31:12.074Z,90.77
2018-02-05T19:33:39.658Z,86.70
2018-02-05T19:36:07.226Z,51.47
2018-02-05T19:38:34.802Z,49.27
2018-02-05T19:41:02.373Z,43.40
2018-02-05T19:43:29.930Z,39.50
2018-02-05T19:45:57.721Z,36.00
2018-02-05T19:48:25.283Z,37.67
2018-02-05T19:50:52.842Z,39.57
2018-02-05T19:53:20.577Z,38.77
2018-02-05T19:55:48.174Z,33.83
2018-02-05T19:58:15.799Z,32.57
2018-02-05T20:00:43.429Z,33.57
2018-02-05T20:03:11.094Z,35.17
2018-02-05T20:05:38.677Z,44.47
2018-02-05T20:08:06.485Z,42.53
2018-02-05T20:10:34.304Z,44.73
2018-02-05T20:13:02.022Z,39.20
2018-02-05T20:15:29.837Z,53.17
2018-02-05T20:17:57.394Z,51.37
2018-02-05T20:20:25.014Z,56.90
2018-02-05T20:22:52.795Z,43.67
2018-02-05T20:25:20.359Z,44.87
2018-02-05T20:27:48.130Z,51.20
2018-02-05T20:30:15.699Z,48.20
2018-02-05T20:32:43.273Z,42.37
2018-02-05T20:35:10.881Z,38.23
2018-02-05T20:37:38.802Z,33.00
2018-02-05T20:40:06.534Z,31.13
2018-02-05T20:42:34.132Z,28.83
2018-02-05T20:45:01.718Z,30.03
2018-02-05T20:47:29.279Z,31.00
2018-02-05T20:49:56.860Z,30.27
2018-02-05T20:52:24.423Z,31.73
2018-02-05T20:54:52.328Z,33.30
2018-02-05T20:57:19.890Z,33.37
2018-02-05T20:59:47.581Z,34.07
2018-02-05T21:02:15.163Z,31.80
2018-02-05T21:04:42.726Z,31.83
2018-02-05T21:07:10.300Z,30.03
2018-02-05T21:09:37.862Z,29.97
2018-02-05T21:12:05.653Z,28.10
2018-02-05T21:14:33.213Z,27.53
2018-02-05T21:17:00.771Z,26.97
2018-02-05T21:19:28.335Z,26.03
2018-02-05T21:21:55.914Z,25.60
2018-02-05T21:24:23.495Z,30.13
2018-02-05T21:26:51.057Z,30.53
2018-02-05T21:29:18.763Z,29.07
2018-02-05T21:31:46.410Z,30.03
2018-02-05T21:34:14.048Z,31.87
2018-02-05T21:36:41.618Z,38.10
2018-02-05T21:39:09.211Z,44.97
2018-02-05T21:41:36.945Z,35.73
2018-02-05T21:44:04.531Z,34.97
2018-02-05T21:46:32.126Z,32.47
2018-02-05T21:48:59.899Z,30.40
2018-02-05T21:51:27.595Z,28.57
2018-02-05T21:53:55.335Z,29.30
2018-02-05T21:56:22.898Z,28.60
2018-02-05T21:58:50.467Z,30.97
2018-02-05T22:01:18.075Z,28.33
2018-02-05T22:03:45.906Z,29.90
2018-02-05T22:06:13.494Z,28.87
2018-02-05T22:08:41.245Z,28.17
2018-02-05T22:11:08.853Z,30.90
2018-02-05T22:13:36.579Z,33.50
2018-02-05T22:16:04.167Z,36.90
2018-02-05T22:18:31.721Z,38.87
2018-02-05T22:20:59.325Z,36.07
2018-02-05T22:23:27.030Z,33.80
2018-02-05T22:25:54.746Z,37.17
2018-02-05T22:28:22.310Z,37.47
2018-02-05T22:30:49.865Z,37.07
2018-02-05T22:33:17.534Z,34.57
2018-02-05T22:35:45.110Z,36.97
2018-02-05T22:38:12.737Z,36.17
2018-02-05T22:40:40.447Z,34.83
2018-02-05T22:43:08.081Z,32.33
2018-02-05T22:45:35.812Z,30.83
2018-02-05T22:48:03.398Z,29.27
2018-02-05T22:50:31.107Z,31.10
2018-02-05T22:52:58.757Z,34.73
2018-02-05T22:55:26.382Z,32.13
2018-02-05T22:57:54.102Z,30.90
2018-02-05T23:00:21.820Z,28.83
2018-02-05T23:02:49.381Z,30.97
2018-02-05T23:05:16.943Z,31.80
2018-02-05T23:07:44.508Z,29.60
2018-02-05T23:10:11.378Z,26.23
2018-02-05T23:12:38.998Z,27.57
2018-02-05T23:15:06.591Z,27.33
2018-02-05T23:17:34.147Z,26.60
2018-02-05T23:20:01.730Z,29.17
2018-02-05T23:22:29.278Z,29.57
2018-02-05T23:24:56.895Z,33.67
2018-02-05T23:27:24.714Z,33.93
2018-02-05T23:29:52.532Z,33.07
2018-02-05T23:32:20.097Z,35.63
2018-02-05T23:34:47.658Z,38.97
2018-02-05T23:37:15.262Z,37.30
2018-02-05T23:39:42.818Z,35.47
2018-02-05T23:42:10.400Z,30.50
2018-02-05T23:44:38.139Z,31.03
2018-02-05T23:47:05.761Z,34.80
2018-02-05T23:49:33.453Z,33.20
2018-02-05T23:52:01.014Z,29.57
2018-02-05T23:54:28.911Z,30.40
2018-02-05T23:56:56.621Z,31.40
2018-02-05T23:59:24.348Z,30.60
